Time;durP1;ratioP1;P1;durP2;ratioP2;P2;SDS_P1;SDS_P2;PMS_P1;PMS_P2;Temp;Humidity;BMP_temperature;BMP_pressure;BME280_temperature;BME280_humidity;BME280_pressure;Samples;Min_cycle;Max_cycle;Signal;HPM_P1;HPM_P2
2022/09/27 00:01:02;;;;;;;1.40;1.30;;;19.10;56.20;;;;;;5072574;28;20191;-71
2022/09/27 00:03:29;;;;;;;1.35;1.25;;;19.10;56.20;;;;;;5072255;28;20289;-71
2022/09/27 00:06:04;;;;;;;1.30;1.20;;;19.10;56.30;;;;;;5072022;28;20594;-71
2022/09/27 00:08:32;;;;;;;1.38;1.27;;;19.00;56.10;;;;;;5072230;28;20622;-71
2022/09/27 00:11:01;;;;;;;2.15;1.50;;;19.10;56.20;;;;;;5072063;28;20211;-71
2022/09/27 00:13:29;;;;;;;1.20;1.10;;;19.00;56.80;;;;;;5072169;28;20673;-71
2022/09/27 00:15:57;;;;;;;1.30;1.20;;;19.10;56.80;;;;;;5073514;28;20700;-71
2022/09/27 00:18:24;;;;;;;1.10;1.10;;;19.00;56.20;;;;;;5072147;28;20590;-71
2022/09/27 00:20:51;;;;;;;1.33;1.20;;;19.00;56.20;;;;;;5075822;28;20644;-71
2022/09/27 00:23:19;;;;;;;1.42;1.23;;;19.00;56.10;;;;;;5075975;28;20307;-71
2022/09/27 00:25:55;;;;;;;2.08;1.45;;;19.00;56.10;;;;;;5075842;28;20218;-71
2022/09/27 00:28:23;;;;;;;1.15;1.15;;;19.00;56.20;;;;;;5075841;28;20236;-71
2022/09/27 00:30:52;;;;;;;1.33;1.23;;;19.00;56.10;;;;;;5059153;28;20217;-71
2022/09/27 00:33:19;;;;;;;1.65;1.30;;;19.00;56.30;;;;;;5075668;28;20202;-71
2022/09/27 00:35:46;;;;;;;1.13;1.10;;;19.00;56.20;;;;;;5075823;28;20275;-71
2022/09/27 00:38:13;;;;;;;1.83;1.38;;;19.00;56.10;;;;;;5075958;28;20289;-71
2022/09/27 00:40:41;;;;;;;1.77;1.30;;;19.00;56.20;;;;;;5076667;28;20269;-71
2022/09/27 00:43:14;;;;;;;1.30;1.20;;;19.00;56.20;;;;;;5076972;28;20220;-71
2022/09/27 00:45:42;;;;;;;1.42;1.10;;;18.90;56.40;;;;;;5075565;28;20226;-71
2022/09/27 00:48:11;;;;;;;1.60;1.20;;;19.00;56.80;;;;;;5075427;28;20195;-71
2022/09/27 00:50:39;;;;;;;1.17;1.10;;;19.00;56.10;;;;;;5075234;28;20222;-71
2022/09/27 00:53:10;;;;;;;1.10;1.10;;;19.00;56.30;;;;;;5075349;28;20248;-71
2022/09/27 00:55:39;;;;;;;1.25;1.23;;;18.90;56.00;;;;;;5075427;28;20738;-71
2022/09/27 00:58:08;;;;;;;1.33;1.08;;;18.90;55.90;;;;;;5075664;28;20272;-71
2022/09/27 01:00:36;;;;;;;1.67;1.20;;;18.90;56.20;;;;;;5076636;28;20595;-71
2022/09/27 01:03:04;;;;;;;1.20;1.10;;;18.90;56.00;;;;;;5075394;28;20195;-71
2022/09/27 01:05:33;;;;;;;1.15;1.10;;;18.90;56.10;;;;;;5075419;28;20207;-71
2022/09/27 01:08:01;;;;;;;1.30;1.10;;;18.90;56.10;;;;;;5075237;28;20653;-71
2022/09/27 01:10:28;;;;;;;1.40;1.30;;;18.90;56.20;;;;;;5074790;28;20281;-71
2022/09/27 01:12:59;;;;;;;1.70;1.20;;;18.90;56.10;;;;;;5074605;28;20201;-71
2022/09/27 01:15:29;;;;;;;1.25;1.15;;;18.90;56.10;;;;;;5074763;28;20199;-71
2022/09/27 01:18:07;;;;;;;1.20;1.00;;;18.90;56.20;;;;;;5075493;28;20202;-71
2022/09/27 01:21:02;;;;;;;1.55;1.10;;;18.90;56.10;;;;;;5075699;28;20209;-71
2022/09/27 01:23:52;;;;;;;1.30;1.20;;;18.90;56.10;;;;;;5074761;28;20198;-71
2022/09/27 01:26:28;;;;;;;1.15;1.13;;;18.90;56.80;;;;;;5075135;28;20215;-71
2022/09/27 01:28:57;;;;;;;1.30;1.20;;;18.90;56.20;;;;;;5075429;28;20194;-71
2022/09/27 01:31:28;;;;;;;1.40;1.17;;;18.90;56.20;;;;;;5074257;28;20219;-71
2022/09/27 01:34:01;;;;;;;1.27;1.17;;;18.80;56.20;;;;;;5074695;28;20658;-71
2022/09/27 01:36:31;;;;;;;1.05;1.00;;;18.80;56.70;;;;;;5074527;28;20214;-71
2022/09/27 01:39:06;;;;;;;1.10;1.02;;;18.80;56.80;;;;;;5074506;28;20194;-70
2022/09/27 01:41:53;;;;;;;1.10;1.10;;;18.80;56.10;;;;;;5076562;28;20187;-71
2022/09/27 01:44:34;;;;;;;1.42;1.17;;;18.80;56.20;;;;;;5075326;28;20199;-71
2022/09/27 01:47:19;;;;;;;1.10;0.93;;;18.80;56.30;;;;;;5075706;28;20301;-71
2022/09/27 01:49:55;;;;;;;1.33;1.23;;;18.80;56.40;;;;;;5074852;28;20194;-71
2022/09/27 01:52:24;;;;;;;1.08;1.08;;;18.80;56.20;;;;;;5074043;28;20218;-71
2022/09/27 01:54:53;;;;;;;0.90;0.90;;;18.80;56.40;;;;;;5074369;28;20194;-72
2022/09/27 01:57:50;;;;;;;1.10;1.10;;;18.70;56.30;;;;;;5055843;28;20642;-71
2022/09/27 02:00:24;;;;;;;1.20;1.10;;;18.70;56.40;;;;;;5074826;28;20247;-71
2022/09/27 02:02:54;;;;;;;1.02;1.00;;;18.70;56.40;;;;;;5075498;28;20205;-71
2022/09/27 02:05:32;;;;;;;1.10;1.10;;;18.80;56.50;;;;;;5075688;28;20182;-71
2022/09/27 02:08:07;;;;;;;2.40;1.27;;;18.70;56.40;;;;;;5074769;28;20206;-71
2022/09/27 02:10:37;;;;;;;1.20;1.10;;;18.70;56.40;;;;;;5074086;28;20256;-71
2022/09/27 02:13:14;;;;;;;1.27;1.17;;;18.70;56.50;;;;;;5073949;28;20667;-71
2022/09/27 02:15:47;;;;;;;1.00;1.00;;;18.70;56.50;;;;;;5073566;28;20215;-71
2022/09/27 02:18:27;;;;;;;1.05;1.05;;;18.70;57.00;;;;;;5073912;28;20555;-71
2022/09/27 02:20:56;;;;;;;1.10;1.10;;;18.70;56.40;;;;;;5073649;28;20219;-71
2022/09/27 02:23:26;;;;;;;1.20;1.10;;;18.70;56.60;;;;;;5073496;28;20240;-71
2022/09/27 02:26:03;;;;;;;1.27;1.17;;;18.70;56.60;;;;;;5073753;28;20805;-71
2022/09/27 02:28:33;;;;;;;1.02;1.02;;;18.70;56.50;;;;;;5056993;28;20195;-71
2022/09/27 02:31:00;;;;;;;1.20;1.10;;;18.70;57.20;;;;;;5073313;28;20218;-71
2022/09/27 02:33:35;;;;;;;1.00;1.00;;;18.70;56.60;;;;;;5073472;28;20665;-71
2022/09/27 02:36:03;;;;;;;1.33;1.10;;;18.70;56.80;;;;;;5073770;28;20222;-71
2022/09/27 02:38:30;;;;;;;1.27;1.17;;;18.70;56.80;;;;;;5073129;28;20615;-71
2022/09/27 02:40:59;;;;;;;1.08;1.08;;;18.70;56.70;;;;;;5073051;28;20199;-71
2022/09/27 02:43:29;;;;;;;1.20;1.10;;;18.70;56.70;;;;;;5056333;28;20248;-71
2022/09/27 02:46:04;;;;;;;1.08;1.00;;;18.70;56.80;;;;;;5073722;28;20309;-71
2022/09/27 02:48:35;;;;;;;1.33;1.15;;;18.70;56.90;;;;;;5073774;28;20242;-71
2022/09/27 02:51:10;;;;;;;1.00;0.90;;;18.70;57.00;;;;;;5074033;28;20194;-71
2022/09/27 02:53:47;;;;;;;1.00;0.90;;;18.70;56.90;;;;;;5073021;28;20588;-71
2022/09/27 02:56:47;;;;;;;1.80;1.02;;;18.70;56.90;;;;;;5074066;28;20640;-71
2022/09/27 02:59:42;;;;;;;1.00;0.98;;;18.70;56.80;;;;;;5063955;28;20194;-71
2022/09/27 03:02:24;;;;;;;0.90;0.90;;;18.70;57.00;;;;;;5073297;28;20218;-71
2022/09/27 03:05:20;;;;;;;1.00;1.00;;;18.70;56.60;;;;;;5073839;28;20195;-71
2022/09/27 03:07:48;;;;;;;1.20;1.10;;;18.70;56.50;;;;;;5073810;28;20264;-71
2022/09/27 03:10:19;;;;;;;0.90;0.90;;;18.70;56.40;;;;;;5073579;28;20202;-71
2022/09/27 03:12:46;;;;;;;0.70;0.70;;;18.70;56.20;;;;;;5072453;28;20803;-71
2022/09/27 03:15:14;;;;;;;1.15;1.05;;;18.70;56.30;;;;;;5072584;28;20186;-71
2022/09/27 03:18:00;;;;;;;0.93;0.93;;;18.70;56.20;;;;;;5074113;28;20595;-71
2022/09/27 03:20:44;;;;;;;0.85;0.80;;;18.70;56.40;;;;;;5074241;28;20215;-71
2022/09/27 03:23:12;;;;;;;0.90;0.90;;;18.70;56.40;;;;;;5072591;28;20201;-71
2022/09/27 03:25:40;;;;;;;1.25;1.15;;;18.70;56.40;;;;;;5072561;28;20272;-71
2022/09/27 03:28:08;;;;;;;1.70;0.90;;;18.70;56.40;;;;;;5072854;28;20201;-71
2022/09/27 03:30:36;;;;;;;1.77;0.95;;;18.70;56.40;;;;;;5072829;28;20302;-71
2022/09/27 03:33:04;;;;;;;1.23;0.80;;;18.70;56.40;;;;;;5073066;28;20649;-71
2022/09/27 03:35:44;;;;;;;1.30;1.20;;;18.70;56.40;;;;;;5074164;28;20218;-71
2022/09/27 03:38:13;;;;;;;1.08;1.08;;;18.80;56.40;;;;;;5072537;28;20673;-71
2022/09/27 03:40:40;;;;;;;1.20;1.05;;;18.90;56.30;;;;;;5072628;28;20194;-71
2022/09/27 03:43:08;;;;;;;1.20;1.10;;;19.00;56.10;;;;;;5072373;28;20700;-71
2022/09/27 03:45:36;;;;;;;1.20;1.10;;;19.00;55.90;;;;;;5072524;28;20286;-71
2022/09/27 03:48:07;;;;;;;1.25;1.23;;;19.10;55.70;;;;;;5056075;28;20194;-71
2022/09/27 03:50:35;;;;;;;1.17;1.08;;;19.20;55.60;;;;;;5072347;28;20194;-71
2022/09/27 03:53:04;;;;;;;1.20;1.10;;;19.30;55.40;;;;;;5072908;28;20744;-71
2022/09/27 03:55:31;;;;;;;1.38;1.27;;;19.30;55.20;;;;;;5076226;28;20198;-71
2022/09/27 03:57:58;;;;;;;1.10;1.10;;;19.30;55.70;;;;;;5077712;28;20594;-71
2022/09/27 04:00:25;;;;;;;0.88;0.88;;;19.30;54.90;;;;;;5076164;28;20222;-71
2022/09/27 04:02:52;;;;;;;1.42;1.10;;;19.30;54.90;;;;;;5059619;28;20195;-71
2022/09/27 04:05:23;;;;;;;0.80;0.80;;;19.30;55.10;;;;;;5077982;28;20584;-72
2022/09/27 04:07:51;;;;;;;0.93;0.90;;;19.30;55.00;;;;;;5076225;28;20248;-72
2022/09/27 04:10:21;;;;;;;0.85;0.70;;;19.20;55.00;;;;;;5076243;28;20248;-72
2022/09/27 04:12:50;;;;;;;1.58;1.25;;;19.20;55.10;;;;;;5075801;28;20692;-72
2022/09/27 04:15:20;;;;;;;1.00;1.00;;;19.20;55.00;;;;;;5076895;28;20557;-72
2022/09/27 04:17:49;;;;;;;1.17;1.00;;;19.10;55.00;;;;;;5078306;28;20179;-71
2022/09/27 04:20:40;;;;;;;1.60;0.90;;;19.10;55.10;;;;;;5084555;28;20657;-71
2022/09/27 04:23:10;;;;;;;1.25;1.15;;;19.10;55.20;;;;;;5077258;28;20657;-72
2022/09/27 04:25:42;;;;;;;0.90;0.85;;;19.10;55.30;;;;;;5076492;28;20567;-72
2022/09/27 04:28:20;;;;;;;1.20;1.10;;;19.00;55.20;;;;;;5076060;28;20281;-72
2022/09/27 04:30:47;;;;;;;0.95;0.95;;;19.00;55.20;;;;;;5076685;28;20592;-71
2022/09/27 04:33:49;;;;;;;1.20;1.10;;;19.00;55.30;;;;;;5075798;28;20242;-71
2022/09/27 04:36:27;;;;;;;1.95;1.10;;;19.00;55.30;;;;;;5075650;28;20218;-71
2022/09/27 04:39:03;;;;;;;1.30;1.20;;;19.00;55.40;;;;;;5075511;28;20720;-72
2022/09/27 04:41:34;;;;;;;1.90;1.00;;;18.90;56.20;;;;;;5075598;28;20290;-72
2022/09/27 04:44:01;;;;;;;1.02;1.02;;;18.90;55.80;;;;;;5076678;28;20263;-72
2022/09/27 04:46:30;;;;;;;1.52;1.02;;;18.90;56.00;;;;;;5075563;28;20219;-72
2022/09/27 04:48:58;;;;;;;1.95;1.17;;;18.90;56.00;;;;;;5075461;28;20277;-72
2022/09/27 04:51:25;;;;;;;1.10;1.00;;;18.90;56.10;;;;;;5059258;28;20194;-71
2022/09/27 04:53:53;;;;;;;2.40;1.15;;;18.90;56.20;;;;;;5076074;28;20210;-71
2022/09/27 04:56:21;;;;;;;1.70;1.20;;;18.80;56.10;;;;;;5076828;28;20597;-71
2022/09/27 04:58:49;;;;;;;2.55;1.20;;;18.90;56.30;;;;;;5075293;28;20547;-71
2022/09/27 05:01:16;;;;;;;1.15;1.05;;;18.90;56.40;;;;;;5075074;28;20252;-71
2022/09/27 05:04:02;;;;;;;1.35;1.13;;;18.90;57.00;;;;;;5076637;28;20189;-71
2022/09/27 05:06:30;;;;;;;1.60;1.00;;;18.90;56.60;;;;;;5074165;28;20236;-71
2022/09/27 05:09:05;;;;;;;1.92;1.20;;;18.90;56.50;;;;;;5075935;28;20202;-71
2022/09/27 05:11:44;;;;;;;1.75;1.30;;;18.90;56.50;;;;;;5075771;28;20221;-71
2022/09/27 05:14:31;;;;;;;3.10;1.30;;;18.90;56.50;;;;;;5076254;28;20260;-71
2022/09/27 05:17:19;;;;;;;2.45;1.13;;;18.90;56.70;;;;;;5074947;28;20242;-71
2022/09/27 05:20:21;;;;;;;1.90;1.23;;;18.90;56.60;;;;;;5065778;28;20191;-71
2022/09/27 05:22:54;;;;;;;1.45;1.27;;;18.90;56.60;;;;;;5074719;28;20240;-72
2022/09/27 05:25:21;;;;;;;2.42;1.10;;;18.90;56.60;;;;;;5075863;28;20270;-72
2022/09/27 05:27:49;;;;;;;3.20;1.20;;;18.90;57.20;;;;;;5074902;28;20222;-72
2022/09/27 05:30:18;;;;;;;1.48;1.27;;;18.80;56.50;;;;;;5074454;28;20222;-72
2022/09/27 05:32:49;;;;;;;1.20;1.08;;;18.80;56.50;;;;;;5074706;28;20219;-72
2022/09/27 05:35:25;;;;;;;1.50;1.10;;;18.80;56.60;;;;;;5076151;28;20182;-72
2022/09/27 05:37:53;;;;;;;2.42;1.15;;;18.70;56.40;;;;;;5075424;28;20198;-71
2022/09/27 05:40:24;;;;;;;2.83;1.20;;;18.70;56.40;;;;;;5075238;28;20215;-71
2022/09/27 05:42:51;;;;;;;1.30;1.20;;;18.70;56.30;;;;;;5074325;28;20187;-71
2022/09/27 05:45:21;;;;;;;1.30;1.20;;;18.70;56.40;;;;;;5075572;28;20187;-71
2022/09/27 05:47:55;;;;;;;2.35;1.48;;;18.70;56.40;;;;;;5074193;28;20607;-71
2022/09/27 05:50:23;;;;;;;1.58;1.33;;;18.70;57.00;;;;;;5058152;28;20198;-71
2022/09/27 05:52:50;;;;;;;2.40;1.33;;;18.70;56.50;;;;;;5074307;28;20222;-71
2022/09/27 05:55:19;;;;;;;1.83;1.42;;;18.70;56.60;;;;;;5074265;28;20248;-71
2022/09/27 05:57:56;;;;;;;2.65;1.45;;;18.70;56.50;;;;;;5074017;28;20194;-71
2022/09/27 06:00:29;;;;;;;4.18;1.92;;;18.70;56.40;;;;;;5074159;28;20208;-71
2022/09/27 06:02:57;;;;;;;4.97;1.90;;;18.70;56.70;;;;;;5074346;28;20201;-71
2022/09/27 06:06:02;;;;;;;2.70;1.50;;;18.70;56.70;;;;;;5053061;28;20674;-71
2022/09/27 06:08:38;;;;;;;2.45;1.27;;;18.70;57.30;;;;;;5071143;28;20581;-71
2022/09/27 06:11:08;;;;;;;2.38;1.30;;;18.70;56.60;;;;;;5073822;28;20285;-71
2022/09/27 06:13:36;;;;;;;2.35;1.48;;;18.70;56.60;;;;;;5073708;28;20214;-71
2022/09/27 06:16:05;;;;;;;2.22;1.15;;;18.70;56.50;;;;;;5073645;28;20250;-70
2022/09/27 06:18:34;;;;;;;1.65;1.17;;;18.80;56.50;;;;;;5073907;28;20298;-70
2022/09/27 06:21:01;;;;;;;3.00;1.30;;;18.80;56.50;;;;;;5073784;28;20194;-71
2022/09/27 06:23:28;;;;;;;3.38;1.30;;;18.80;56.40;;;;;;5073528;28;20273;-71
2022/09/27 06:25:58;;;;;;;1.50;1.20;;;18.80;56.20;;;;;;5073486;28;20227;-71
2022/09/27 06:28:36;;;;;;;1.33;1.20;;;18.90;56.30;;;;;;5074234;28;20194;-71
2022/09/27 06:31:08;;;;;;;3.05;1.30;;;18.80;56.20;;;;;;5073714;28;20194;-70
2022/09/27 06:33:40;;;;;;;1.95;1.20;;;18.90;56.20;;;;;;5073379;28;20214;-71
2022/09/27 06:36:08;;;;;;;2.20;1.23;;;18.80;56.20;;;;;;5074552;28;20220;-71
2022/09/27 06:38:37;;;;;;;1.75;1.30;;;18.90;56.20;;;;;;5073209;28;20669;-71
2022/09/27 06:41:14;;;;;;;3.28;1.42;;;18.90;56.10;;;;;;5073522;28;20683;-71
2022/09/27 06:44:00;;;;;;;2.80;1.48;;;18.90;56.20;;;;;;5074626;28;20189;-71
2022/09/27 06:46:38;;;;;;;3.45;1.40;;;18.90;56.30;;;;;;5074602;28;20620;-71
2022/09/27 06:49:11;;;;;;;2.72;1.25;;;18.90;56.30;;;;;;5074301;28;20175;-71
2022/09/27 06:51:41;;;;;;;1.27;1.00;;;19.00;56.40;;;;;;5074395;28;20218;-71
2022/09/27 06:54:09;;;;;;;2.38;1.55;;;19.00;56.20;;;;;;5073040;28;20723;-71
2022/09/27 06:56:36;;;;;;;1.70;1.23;;;19.00;56.20;;;;;;5072882;28;20218;-71
2022/09/27 07:01:51;;;;;;;1.88;1.20;;;19.00;56.20;;;;;;5074390;28;20187;-71
2022/09/27 07:04:36;;;;;;;3.03;1.35;;;19.00;56.20;;;;;;5074046;28;20171;-71
2022/09/27 07:07:08;;;;;;;2.85;1.50;;;19.00;56.30;;;;;;5056702;28;20229;-71
2022/09/27 07:09:39;;;;;;;3.08;1.73;;;19.00;56.20;;;;;;5056637;28;20199;-72
2022/09/27 07:12:06;;;;;;;3.90;1.60;;;19.10;56.20;;;;;;5072653;28;20201;-71
2022/09/27 07:14:34;;;;;;;4.30;1.85;;;19.10;56.10;;;;;;5072636;28;20245;-71
2022/09/27 07:17:04;;;;;;;3.03;1.60;;;19.10;56.10;;;;;;5072554;28;20727;-71
2022/09/27 07:19:39;;;;;;;4.13;1.95;;;19.20;56.00;;;;;;5072892;28;20198;-71
2022/09/27 07:22:07;;;;;;;3.92;1.80;;;19.20;56.10;;;;;;5072650;28;20199;-71
2022/09/27 07:24:35;;;;;;;2.67;1.70;;;19.20;56.20;;;;;;5072533;28;20248;-71
2022/09/27 07:27:02;;;;;;;2.63;1.48;;;19.20;56.10;;;;;;5055948;28;20619;-71
2022/09/27 07:29:31;;;;;;;2.75;1.70;;;19.30;56.10;;;;;;5072612;28;20199;-71
2022/09/27 07:32:00;;;;;;;2.88;1.73;;;19.30;56.10;;;;;;5073570;28;20218;-71
2022/09/27 07:34:29;;;;;;;3.17;1.67;;;19.40;56.90;;;;;;5072437;28;20421;-71
2022/09/27 07:36:59;;;;;;;2.90;1.42;;;19.50;56.00;;;;;;5055867;28;20242;-71
2022/09/27 07:39:26;;;;;;;3.53;1.67;;;19.80;55.60;;;;;;5072426;28;20244;-71
2022/09/27 07:41:53;;;;;;;2.75;1.40;;;19.90;55.10;;;;;;5072453;28;20195;-71
2022/09/27 07:44:21;;;;;;;2.63;1.67;;;20.00;54.80;;;;;;5055879;28;20191;-71
2022/09/27 07:47:09;;;;;;;2.78;1.40;;;20.10;56.40;;;;;;5072444;28;20222;-71
2022/09/27 07:50:01;;;;;;;3.40;1.55;;;20.00;56.40;;;;;;5070636;28;20194;-71
2022/09/27 07:52:42;;;;;;;2.72;1.40;;;20.00;56.10;;;;;;5072378;28;20277;-71
2022/09/27 07:55:41;;;;;;;2.40;1.50;;;20.10;56.20;;;;;;5062337;28;20218;-71
2022/09/27 07:58:13;;;;;;;3.28;1.48;;;20.10;56.20;;;;;;5073600;28;20191;-71
2022/09/27 08:00:40;;;;;;;2.90;1.50;;;20.10;56.60;;;;;;5074896;28;20197;-71
2022/09/27 08:03:13;;;;;;;2.63;1.20;;;20.10;56.00;;;;;;5073619;28;20241;-70
2022/09/27 08:05:41;;;;;;;2.08;1.20;;;20.10;55.60;;;;;;5072542;28;20221;-71
2022/09/27 08:08:08;;;;;;;3.10;1.40;;;20.10;55.50;;;;;;5073267;28;20195;-71
2022/09/27 08:10:38;;;;;;;1.70;1.00;;;20.20;55.50;;;;;;5072293;28;20198;-72
2022/09/27 08:13:06;;;;;;;2.30;1.23;;;20.20;55.40;;;;;;5071985;28;20251;-72
2022/09/27 08:15:34;;;;;;;2.28;1.50;;;20.20;55.30;;;;;;5072070;28;20211;-72
2022/09/27 08:18:02;;;;;;;1.92;1.17;;;20.20;55.30;;;;;;5072087;28;20205;-72
2022/09/27 08:20:50;;;;;;;1.27;1.17;;;20.30;55.50;;;;;;5073716;28;20196;-72
2022/09/27 08:23:27;;;;;;;1.55;1.23;;;20.30;55.10;;;;;;5073304;28;20194;-72
2022/09/27 08:26:17;;;;;;;2.47;1.48;;;20.30;54.80;;;;;;5070346;28;20219;-72
2022/09/27 08:28:52;;;;;;;2.42;1.30;;;20.30;54.80;;;;;;5073159;28;20551;-72
2022/09/27 08:31:24;;;;;;;2.13;1.23;;;20.40;54.70;;;;;;5072474;28;20244;-72
2022/09/27 08:33:53;;;;;;;3.17;1.50;;;20.40;54.30;;;;;;5072927;28;20211;-72
2022/09/27 08:36:24;;;;;;;2.30;1.42;;;20.50;54.60;;;;;;5071890;28;20219;-72
2022/09/27 08:38:51;;;;;;;1.90;1.08;;;20.60;53.80;;;;;;5073094;28;20183;-72
2022/09/27 08:41:25;;;;;;;2.03;1.15;;;20.60;53.70;;;;;;5074333;28;20202;-72
2022/09/27 08:43:56;;;;;;;1.55;1.05;;;20.60;53.60;;;;;;5075427;28;20278;-72
2022/09/27 08:46:27;;;;;;;1.40;1.20;;;20.60;53.50;;;;;;5059038;28;20221;-72
2022/09/27 08:48:58;;;;;;;1.85;1.10;;;20.60;53.70;;;;;;5075426;28;20661;-72
2022/09/27 08:51:29;;;;;;;1.73;1.25;;;20.70;53.30;;;;;;5075436;28;20191;-72
2022/09/27 08:53:57;;;;;;;1.38;1.13;;;20.60;53.00;;;;;;5075283;28;20229;-72
2022/09/27 08:56:25;;;;;;;1.45;0.90;;;20.60;52.70;;;;;;5075032;28;20301;-72
2022/09/27 08:58:53;;;;;;;2.17;1.17;;;20.60;52.80;;;;;;5075340;28;20248;-72
2022/09/27 09:01:24;;;;;;;2.08;1.15;;;20.60;53.00;;;;;;5075222;28;20198;-71
2022/09/27 09:04:00;;;;;;;1.30;1.20;;;20.60;52.90;;;;;;5076011;28;20194;-72
2022/09/27 09:06:32;;;;;;;1.70;1.20;;;20.60;53.00;;;;;;5075483;28;20264;-72
2022/09/27 09:09:03;;;;;;;2.28;1.10;;;20.60;53.40;;;;;;5075160;28;20187;-72
2022/09/27 09:14:38;;;;;;;2.42;1.10;;;20.60;53.00;;;;;;5075342;28;20219;-72
2022/09/27 09:17:10;;;;;;;2.28;0.95;;;20.60;52.90;;;;;;5076119;28;20218;-72
2022/09/27 09:19:59;;;;;;;1.77;1.05;;;20.60;53.00;;;;;;5075886;28;20252;-72
2022/09/27 09:22:47;;;;;;;1.80;1.08;;;20.70;53.00;;;;;;5075853;28;20197;-72
2022/09/27 09:25:22;;;;;;;1.45;1.00;;;20.80;52.80;;;;;;5075008;28;20182;-72
2022/09/27 09:27:54;;;;;;;1.20;1.10;;;20.90;52.60;;;;;;5075553;28;20243;-72
2022/09/27 09:30:23;;;;;;;1.20;0.90;;;21.10;52.60;;;;;;5074516;28;20194;-72
2022/09/27 09:33:02;;;;;;;1.33;1.13;;;21.20;52.30;;;;;;5075420;28;20193;-72
2022/09/27 09:35:32;;;;;;;1.63;1.25;;;21.30;52.30;;;;;;5074492;28;20256;-72
2022/09/27 09:38:01;;;;;;;1.60;1.00;;;21.40;52.00;;;;;;5074737;28;20566;-72
2022/09/27 09:40:29;;;;;;;2.08;1.02;;;21.60;51.70;;;;;;5074316;28;20199;-72
2022/09/27 09:43:00;;;;;;;1.40;0.98;;;21.70;51.50;;;;;;5074522;28;20256;-72
2022/09/27 09:45:28;;;;;;;1.45;1.00;;;21.70;51.20;;;;;;5074114;28;20707;-72
2022/09/27 09:47:59;;;;;;;1.50;1.05;;;21.70;51.10;;;;;;5074191;28;20191;-72
2022/09/27 09:50:27;;;;;;;1.38;1.00;;;21.70;51.10;;;;;;5074181;28;20195;-72
2022/09/27 09:52:58;;;;;;;1.17;0.85;;;21.60;51.00;;;;;;5074066;28;20195;-72
2022/09/27 09:55:29;;;;;;;1.85;1.33;;;21.60;51.20;;;;;;5074018;28;20260;-72
2022/09/27 09:58:02;;;;;;;1.80;1.20;;;21.60;51.20;;;;;;5057373;28;20661;-72
2022/09/27 10:00:37;;;;;;;1.20;1.08;;;21.50;51.30;;;;;;5074305;28;20277;-72
2022/09/27 10:03:04;;;;;;;1.40;0.90;;;21.50;51.30;;;;;;5073949;28;20206;-72
2022/09/27 10:05:32;;;;;;;1.70;1.15;;;21.60;51.30;;;;;;5073817;28;20717;-72
2022/09/27 10:08:07;;;;;;;2.22;1.23;;;21.70;51.20;;;;;;5073917;28;20186;-72
2022/09/27 10:10:37;;;;;;;1.70;1.13;;;21.80;50.90;;;;;;5074296;28;20199;-73
2022/09/27 10:13:24;;;;;;;1.30;1.00;;;22.00;50.70;;;;;;5073780;28;20203;-72
2022/09/27 10:16:01;;;;;;;1.45;1.10;;;22.00;51.00;;;;;;5073584;28;20210;-72
2022/09/27 10:18:28;;;;;;;1.48;1.30;;;22.10;50.40;;;;;;5073699;28;20248;-72
2022/09/27 10:20:57;;;;;;;1.35;1.00;;;22.20;50.30;;;;;;5073562;28;20237;-72
2022/09/27 10:23:24;;;;;;;1.27;0.95;;;22.20;50.10;;;;;;5073579;28;20564;-72
2022/09/27 10:26:12;;;;;;;1.20;1.00;;;22.30;50.50;;;;;;5074339;28;20225;-72
2022/09/27 10:28:47;;;;;;;2.40;1.20;;;22.30;50.40;;;;;;5073497;28;20607;-72
2022/09/27 10:31:19;;;;;;;1.20;1.10;;;22.40;49.70;;;;;;5073409;28;20286;-72
2022/09/27 10:34:06;;;;;;;1.08;0.98;;;22.40;49.80;;;;;;5070865;28;20309;-72
2022/09/27 10:36:40;;;;;;;1.08;0.98;;;22.30;49.80;;;;;;5073410;28;20276;-72
2022/09/27 10:39:19;;;;;;;1.25;1.00;;;22.20;49.90;;;;;;5056849;28;20221;-72
2022/09/27 10:41:48;;;;;;;1.45;1.25;;;22.20;50.80;;;;;;5073115;28;20182;-72
2022/09/27 10:44:26;;;;;;;1.10;1.00;;;22.10;50.30;;;;;;5073267;28;20186;-72
2022/09/27 10:47:06;;;;;;;0.98;0.82;;;22.00;50.40;;;;;;5073071;28;20260;-72
2022/09/27 10:49:40;;;;;;;1.60;1.10;;;21.90;50.60;;;;;;5073899;28;20203;-72
2022/09/27 10:52:27;;;;;;;2.05;1.10;;;21.90;50.70;;;;;;5073965;28;20665;-72
2022/09/27 10:54:55;;;;;;;1.50;1.00;;;21.80;51.30;;;;;;5073119;28;20608;-72
2022/09/27 10:57:25;;;;;;;1.85;1.10;;;21.80;50.80;;;;;;5073348;28;20220;-72
2022/09/27 10:59:52;;;;;;;1.90;1.10;;;21.70;50.80;;;;;;5072828;28;20205;-72
2022/09/27 11:02:20;;;;;;;1.27;1.00;;;21.70;50.80;;;;;;5073650;28;20193;-72
2022/09/27 11:05:06;;;;;;;1.27;1.05;;;21.70;51.40;;;;;;5072595;28;20288;-72
2022/09/27 11:07:35;;;;;;;1.13;0.80;;;21.80;50.90;;;;;;5072976;28;20219;-72
2022/09/27 11:10:22;;;;;;;1.25;0.98;;;21.80;50.80;;;;;;5073401;28;20680;-72
2022/09/27 11:13:09;;;;;;;1.20;0.90;;;21.80;50.80;;;;;;5073735;28;20198;-72
2022/09/27 11:15:40;;;;;;;1.02;0.90;;;21.80;50.70;;;;;;5072649;28;20635;-72
2022/09/27 11:18:09;;;;;;;0.60;0.60;;;21.90;50.70;;;;;;5072659;28;20191;-72
2022/09/27 11:20:38;;;;;;;0.98;0.85;;;21.80;50.60;;;;;;5072798;28;20199;-72
2022/09/27 11:23:22;;;;;;;1.70;1.02;;;21.80;50.60;;;;;;5072632;28;20179;-72
2022/09/27 11:25:59;;;;;;;1.48;1.00;;;21.80;50.70;;;;;;5072647;28;20206;-72
2022/09/27 11:28:33;;;;;;;0.98;0.90;;;21.80;50.70;;;;;;5073367;28;20528;-72
2022/09/27 11:31:04;;;;;;;1.05;0.80;;;21.80;50.70;;;;;;5072813;28;20652;-72
2022/09/27 11:33:51;;;;;;;1.58;0.98;;;21.70;50.70;;;;;;5072528;28;20194;-72
2022/09/27 11:36:26;;;;;;;1.08;0.82;;;21.70;50.70;;;;;;5072609;28;20244;-72
2022/09/27 11:39:00;;;;;;;0.77;0.70;;;21.70;50.70;;;;;;5072431;28;20195;-72
2022/09/27 11:41:34;;;;;;;0.70;0.70;;;21.70;51.30;;;;;;5072606;28;20247;-72
2022/09/27 11:44:20;;;;;;;1.10;0.88;;;21.70;51.30;;;;;;5072306;28;20201;-72
2022/09/27 11:46:48;;;;;;;1.13;0.93;;;21.70;50.70;;;;;;5072557;28;20214;-73
2022/09/27 11:49:45;;;;;;;1.08;0.85;;;21.70;50.80;;;;;;5079242;28;20195;-72
2022/09/27 11:52:22;;;;;;;1.30;1.00;;;21.70;50.80;;;;;;5084230;28;20194;-72
2022/09/27 11:55:15;;;;;;;0.70;0.70;;;21.70;50.70;;;;;;5073336;28;20619;-72
2022/09/27 11:57:45;;;;;;;1.13;0.70;;;21.60;50.60;;;;;;5058381;28;20680;-72
2022/09/27 12:00:18;;;;;;;1.00;0.80;;;21.70;50.70;;;;;;5072504;28;20596;-72
2022/09/27 12:03:13;;;;;;;0.77;0.77;;;21.70;50.80;;;;;;5072679;28;20210;-72
2022/09/27 12:05:47;;;;;;;1.67;0.90;;;21.70;51.40;;;;;;5072901;28;20602;-72
2022/09/27 12:08:26;;;;;;;0.65;0.65;;;21.70;50.80;;;;;;5072148;28;20307;-72
2022/09/27 12:10:57;;;;;;;0.82;0.82;;;21.70;50.80;;;;;;5072191;28;20209;-72
2022/09/27 12:13:32;;;;;;;1.08;0.90;;;21.70;50.70;;;;;;5072053;28;20207;-72
2022/09/27 12:16:01;;;;;;;0.60;0.60;;;21.70;50.60;;;;;;5076016;28;20226;-72
2022/09/27 12:18:33;;;;;;;0.80;0.80;;;21.70;50.40;;;;;;5076197;28;20286;-72
2022/09/27 12:21:06;;;;;;;1.60;1.08;;;21.70;50.30;;;;;;5076481;28;20542;-72
2022/09/27 12:23:38;;;;;;;0.90;0.77;;;21.70;50.10;;;;;;5076733;28;20275;-72
2022/09/27 12:26:18;;;;;;;0.80;0.80;;;21.60;50.00;;;;;;5076657;28;20213;-72
2022/09/27 12:28:49;;;;;;;1.05;0.73;;;21.60;50.00;;;;;;5075819;28;20195;-72
2022/09/27 12:31:24;;;;;;;0.90;0.80;;;21.60;49.90;;;;;;5076343;28;20195;-72
2022/09/27 12:33:57;;;;;;;0.70;0.70;;;21.60;50.40;;;;;;5075682;28;20212;-72
2022/09/27 12:36:27;;;;;;;0.73;0.65;;;21.60;49.50;;;;;;5075738;28;20260;-72
2022/09/27 12:39:00;;;;;;;1.10;0.90;;;21.50;49.70;;;;;;5075386;28;20668;-72
2022/09/27 12:41:30;;;;;;;1.02;0.65;;;21.40;50.20;;;;;;5075945;28;20226;-72
2022/09/27 12:44:13;;;;;;;0.70;0.70;;;21.40;50.40;;;;;;5076176;28;20194;-72
2022/09/27 12:46:56;;;;;;;0.80;0.80;;;21.40;50.40;;;;;;5075810;28;20219;-72
2022/09/27 12:49:28;;;;;;;1.02;0.90;;;21.30;50.40;;;;;;5075929;28;20248;-72
2022/09/27 12:51:56;;;;;;;0.50;0.50;;;21.30;50.40;;;;;;5075529;28;20606;-72
2022/09/27 12:54:44;;;;;;;0.60;0.60;;;21.20;50.30;;;;;;5075298;28;20258;-73
2022/09/27 12:57:17;;;;;;;0.85;0.77;;;21.30;50.00;;;;;;5075578;28;20219;-73
2022/09/27 12:59:51;;;;;;;0.82;0.80;;;21.30;50.20;;;;;;5075994;28;20269;-72
2022/09/27 13:02:29;;;;;;;0.68;0.55;;;21.30;50.20;;;;;;5076929;28;20196;-72
2022/09/27 13:05:19;;;;;;;0.82;0.82;;;21.30;50.10;;;;;;5075464;28;20213;-72
2022/09/27 13:07:51;;;;;;;0.70;0.70;;;21.30;50.20;;;;;;5075339;28;20195;-72
2022/09/27 13:10:39;;;;;;;0.57;0.57;;;21.30;50.40;;;;;;5075062;28;20240;-72
2022/09/27 13:13:21;;;;;;;0.70;0.70;;;21.30;50.40;;;;;;5060097;28;20205;-72
2022/09/27 13:15:48;;;;;;;1.02;0.85;;;21.30;50.10;;;;;;5075070;28;20230;-72
2022/09/27 13:18:50;;;;;;;0.90;0.80;;;21.40;50.00;;;;;;5074917;28;20244;-73
2022/09/27 13:21:58;;;;;;;0.75;0.60;;;21.30;49.80;;;;;;5074948;28;20194;-72
2022/09/27 13:24:49;;;;;;;0.60;0.60;;;21.30;49.90;;;;;;5061341;28;20201;-72
2022/09/27 13:27:40;;;;;;;0.50;0.50;;;21.30;50.00;;;;;;5074297;28;20211;-72